Time;durP1;ratioP1;P1;durP2;ratioP2;P2;SDS_P1;SDS_P2;PMS_P1;PMS_P2;Temp;Humidity;BMP_temperature;BMP_pressure;BME280_temperature;BME280_humidity;BME280_pressure;Samples;Min_cycle;Max_cycle;Signal;HPM_P1;HPM_P2
2023/10/19 00:01:18;;;;;;;1.90;0.30;;;12.50;99.90;;;;;;4989539;28;20050;-56
2023/10/19 00:03:47;;;;;;;1.55;0.30;;;12.50;99.90;;;;;;4989135;28;20053;-56
2023/10/19 00:06:18;;;;;;;0.77;0.43;;;12.50;99.90;;;;;;4986363;28;20058;-56
2023/10/19 00:08:46;;;;;;;0.60;0.43;;;12.50;99.90;;;;;;4981601;28;20050;-57
2023/10/19 00:11:24;;;;;;;1.65;0.30;;;12.50;99.90;;;;;;4976314;28;20074;-58
2023/10/19 00:13:57;;;;;;;2.33;0.40;;;12.50;99.90;;;;;;4979759;28;20498;-58
2023/10/19 00:16:35;;;;;;;0.52;0.40;;;12.50;99.90;;;;;;4988709;28;20046;-58
2023/10/19 00:19:03;;;;;;;0.98;0.38;;;12.50;99.90;;;;;;4988745;28;20057;-57
2023/10/19 00:21:48;;;;;;;0.73;0.47;;;12.50;99.90;;;;;;4986160;28;20054;-56
2023/10/19 00:24:22;;;;;;;1.42;0.70;;;12.50;99.90;;;;;;4981743;28;20046;-57
2023/10/19 00:26:53;;;;;;;1.17;0.50;;;12.50;99.90;;;;;;4983347;28;20487;-58
2023/10/19 00:29:30;;;;;;;1.90;0.57;;;12.60;99.90;;;;;;4980561;28;20038;-57
2023/10/19 00:31:59;;;;;;;2.42;0.60;;;12.60;99.90;;;;;;4987737;28;20368;-58
2023/10/19 00:34:30;;;;;;;2.67;0.80;;;12.60;99.90;;;;;;4987224;28;20489;-58
2023/10/19 00:37:07;;;;;;;3.72;1.02;;;12.60;99.90;;;;;;4983808;28;20054;-57
2023/10/19 00:39:43;;;;;;;2.08;0.80;;;12.60;99.90;;;;;;4968667;28;20502;-58
2023/10/19 00:42:15;;;;;;;1.00;0.57;;;12.60;99.90;;;;;;4986925;28;20050;-58
2023/10/19 00:44:43;;;;;;;3.30;0.77;;;12.60;99.90;;;;;;4985831;28;20093;-58
2023/10/19 00:47:17;;;;;;;1.95;0.70;;;12.60;99.90;;;;;;4987465;28;20046;-58
2023/10/19 00:49:47;;;;;;;0.68;0.43;;;12.60;99.90;;;;;;4988025;28;20494;-57
2023/10/19 00:52:23;;;;;;;0.60;0.28;;;12.60;99.90;;;;;;4982048;28;20058;-57
2023/10/19 00:54:53;;;;;;;1.75;0.40;;;12.60;99.90;;;;;;4987385;28;20050;-56
2023/10/19 00:57:23;;;;;;;1.52;0.47;;;12.60;99.90;;;;;;4987005;28;20066;-57
2023/10/19 00:59:54;;;;;;;2.05;0.40;;;12.60;99.90;;;;;;4983674;28;20053;-58
2023/10/19 01:05:04;;;;;;;0.38;0.38;;;12.60;99.90;;;;;;4984652;28;20049;-57
2023/10/19 01:07:37;;;;;;;2.10;0.70;;;12.60;99.90;;;;;;4985398;28;20050;-56
2023/10/19 01:10:19;;;;;;;1.40;0.80;;;12.60;99.90;;;;;;4967095;28;20054;-57
2023/10/19 01:12:51;;;;;;;2.17;1.10;;;12.60;99.90;;;;;;4969878;28;20047;-56
2023/10/19 01:15:29;;;;;;;2.50;1.50;;;12.60;99.90;;;;;;4987070;28;20051;-56
2023/10/19 01:17:58;;;;;;;3.00;1.65;;;12.60;99.90;;;;;;4987943;28;20477;-57
2023/10/19 01:28:16;;;;;;;3.78;2.45;;;12.50;99.90;;;;;;4986456;28;20057;-57
2023/10/19 01:30:45;;;;;;;7.68;2.90;;;12.50;99.90;;;;;;4982886;28;20043;-56
2023/10/19 01:33:15;;;;;;;4.72;3.80;;;12.50;99.90;;;;;;4985893;28;20050;-57
2023/10/19 01:38:33;;;;;;;6.72;5.22;;;12.40;99.90;;;;;;4989814;28;20418;-56
2023/10/19 01:41:05;;;;;;;7.05;4.80;;;12.40;99.90;;;;;;4990067;28;20514;-57
2023/10/19 01:43:33;;;;;;;8.75;5.95;;;12.40;99.90;;;;;;4991091;28;20046;-56
2023/10/19 01:46:04;;;;;;;8.35;5.70;;;12.50;99.90;;;;;;4982508;28;20050;-56
2023/10/19 01:48:35;;;;;;;10.00;6.10;;;12.40;99.90;;;;;;4989974;28;20042;-56
2023/10/19 01:51:05;;;;;;;11.73;8.25;;;12.40;99.90;;;;;;4990040;28;20395;-55
2023/10/19 01:53:35;;;;;;;11.60;6.95;;;12.40;99.90;;;;;;4991236;28;20394;-55
2023/10/19 01:56:05;;;;;;;11.23;6.50;;;12.40;99.90;;;;;;4991674;28;20046;-56
2023/10/19 01:58:36;;;;;;;10.52;6.63;;;12.40;99.90;;;;;;4993058;28;20042;-57
2023/10/19 02:03:43;;;;;;;13.10;7.55;;;12.40;99.90;;;;;;4993504;28;20046;-57
2023/10/19 02:08:51;;;;;;;12.75;7.50;;;12.40;99.90;;;;;;4992116;28;20043;-56
2023/10/19 02:11:22;;;;;;;15.05;8.80;;;12.30;99.90;;;;;;4994070;28;20058;-57
2023/10/19 02:13:54;;;;;;;15.93;8.20;;;12.40;99.90;;;;;;4992641;28;20034;-57
2023/10/19 02:16:22;;;;;;;15.77;8.05;;;12.30;99.90;;;;;;4993312;28;20047;-56
2023/10/19 02:18:51;;;;;;;21.10;9.27;;;12.40;99.90;;;;;;4994671;28;20053;-57
2023/10/19 02:21:22;;;;;;;21.67;9.63;;;12.40;99.90;;;;;;4991907;28;20521;-58
2023/10/19 02:23:52;;;;;;;20.45;8.85;;;12.30;99.90;;;;;;4994460;28;20042;-57
2023/10/19 02:26:22;;;;;;;23.75;10.30;;;12.30;99.90;;;;;;4994158;28;20053;-57
2023/10/19 02:28:50;;;;;;;21.20;9.63;;;12.30;99.90;;;;;;4993922;28;20062;-57
2023/10/19 02:31:21;;;;;;;22.60;10.38;;;12.30;99.90;;;;;;4989389;28;20050;-56
2023/10/19 02:33:51;;;;;;;23.20;10.65;;;12.30;99.90;;;;;;4992469;28;20046;-57
2023/10/19 02:36:20;;;;;;;;;;;12.30;99.90;;;;;;4993478;28;20505;-57
2023/10/19 02:38:52;;;;;;;25.90;10.35;;;12.30;99.90;;;;;;4991773;28;20515;-57
2023/10/19 02:41:20;;;;;;;24.02;9.82;;;12.30;99.90;;;;;;4994192;28;20475;-57
2023/10/19 02:46:34;;;;;;;23.48;10.80;;;12.20;99.90;;;;;;4974798;28;20081;-57
2023/10/19 02:49:04;;;;;;;28.23;12.00;;;12.20;99.90;;;;;;4986269;28;20043;-56
2023/10/19 02:51:32;;;;;;;28.63;12.23;;;12.20;99.90;;;;;;4993853;28;20446;-56
2023/10/19 02:54:02;;;;;;;30.13;12.32;;;12.30;99.90;;;;;;4986717;28;20046;-57
2023/10/19 02:56:30;;;;;;;;;;;12.20;99.90;;;;;;4994528;28;20055;-58
2023/10/19 02:59:07;;;;;;;27.60;11.93;;;12.20;99.90;;;;;;4993503;28;20397;-58
2023/10/19 03:01:35;;;;;;;24.40;11.52;;;12.20;99.90;;;;;;4993646;28;20050;-57
2023/10/19 03:04:05;;;;;;;23.95;11.48;;;12.20;99.90;;;;;;4993435;28;20053;-57
2023/10/19 03:06:33;;;;;;;25.80;12.48;;;12.20;99.90;;;;;;4991012;28;20046;-57
2023/10/19 03:09:13;;;;;;;27.40;12.73;;;12.20;99.90;;;;;;4978480;28;20050;-56
2023/10/19 03:11:42;;;;;;;28.03;13.67;;;12.20;99.90;;;;;;4991924;28;20050;-57
2023/10/19 03:14:11;;;;;;;;;;;12.20;99.90;;;;;;4993784;28;20069;-57
2023/10/19 03:16:42;;;;;;;25.10;12.35;;;12.20;99.90;;;;;;4993292;28;20301;-58
2023/10/19 03:19:11;;;;;;;26.90;13.20;;;12.20;99.90;;;;;;4992106;28;20050;-57
2023/10/19 03:21:49;;;;;;;27.23;12.75;;;12.20;99.90;;;;;;4991978;28;20046;-57
2023/10/19 03:24:35;;;;;;;26.50;13.63;;;12.20;99.90;;;;;;4991992;28;20049;-56
2023/10/19 03:27:21;;;;;;;27.77;14.50;;;12.20;99.90;;;;;;4972564;28;20042;-57
2023/10/19 03:29:54;;;;;;;25.58;12.60;;;12.20;99.90;;;;;;4976490;28;20042;-57
2023/10/19 03:32:26;;;;;;;29.23;13.48;;;12.30;99.90;;;;;;4993168;28;20482;-57
2023/10/19 03:34:56;;;;;;;24.05;12.15;;;12.30;99.90;;;;;;4992976;28;20053;-58
2023/10/19 03:37:29;;;;;;;25.63;11.68;;;12.30;99.90;;;;;;4991891;28;20057;-57
2023/10/19 03:39:58;;;;;;;25.73;13.00;;;12.30;99.90;;;;;;4990574;28;20061;-57
2023/10/19 03:42:28;;;;;;;25.50;13.10;;;12.30;99.90;;;;;;4992867;28;20050;-57
2023/10/19 03:44:57;;;;;;;24.02;12.32;;;12.30;99.90;;;;;;4991548;28;20038;-58
2023/10/19 03:47:26;;;;;;;23.38;12.15;;;12.30;99.90;;;;;;4991063;28;20042;-58
2023/10/19 03:49:54;;;;;;;22.77;11.82;;;12.40;99.90;;;;;;4980512;28;20046;-57
2023/10/19 03:52:21;;;;;;;21.67;11.65;;;12.40;99.90;;;;;;4973336;28;20058;-57
2023/10/19 03:54:50;;;;;;;24.75;11.93;;;12.30;99.90;;;;;;4981132;28;20030;-58
2023/10/19 03:57:29;;;;;;;20.25;10.75;;;12.40;99.90;;;;;;4991586;28;20053;-58
2023/10/19 03:59:57;;;;;;;21.80;11.43;;;12.40;99.90;;;;;;4991254;28;20054;-58
2023/10/19 04:02:28;;;;;;;19.58;10.25;;;12.40;99.90;;;;;;4992544;28;20073;-59
2023/10/19 04:04:57;;;;;;;18.85;11.00;;;12.40;99.90;;;;;;4992453;28;20049;-58
2023/10/19 04:07:25;;;;;;;20.83;11.48;;;12.50;99.90;;;;;;4992377;28;20042;-58
2023/10/19 04:12:54;;;;;;;16.25;9.35;;;12.50;99.90;;;;;;4986764;28;20058;-58
2023/10/19 04:15:22;;;;;;;17.58;10.50;;;12.50;99.90;;;;;;4983617;28;20065;-57
2023/10/19 04:17:49;;;;;;;16.38;9.57;;;12.50;99.90;;;;;;4992071;28;20053;-57
2023/10/19 04:22:48;;;;;;;16.23;9.13;;;12.50;99.90;;;;;;4992209;28;20054;-57
2023/10/19 04:25:18;;;;;;;15.23;8.00;;;12.60;99.90;;;;;;4992214;28;20051;-57
2023/10/19 04:27:48;;;;;;;15.48;8.57;;;12.60;99.90;;;;;;4987303;28;20043;-57
2023/10/19 04:30:17;;;;;;;;;;;12.60;99.90;;;;;;4973064;28;20470;-57
2023/10/19 04:32:46;;;;;;;15.52;8.10;;;12.60;99.90;;;;;;4983067;28;19921;-58
2023/10/19 04:35:21;;;;;;;11.38;6.88;;;12.60;99.90;;;;;;4992034;28;20049;-59
2023/10/19 04:37:53;;;;;;;12.65;7.28;;;12.60;99.90;;;;;;4991900;28;20057;-58
2023/10/19 04:40:25;;;;;;;11.90;6.40;;;12.60;99.90;;;;;;4990147;28;20065;-59
2023/10/19 04:42:54;;;;;;;13.13;6.82;;;12.60;99.90;;;;;;4992012;28;20447;-59
2023/10/19 04:45:22;;;;;;;14.93;6.90;;;12.60;99.90;;;;;;4991871;28;20422;-59
2023/10/19 04:47:54;;;;;;;16.17;7.25;;;12.60;99.90;;;;;;4980645;28;20046;-59
2023/10/19 04:50:23;;;;;;;13.50;6.75;;;12.60;99.90;;;;;;4969438;28;20055;-58
2023/10/19 04:52:51;;;;;;;11.77;6.45;;;12.60;99.90;;;;;;4969098;28;20391;-59
2023/10/19 04:55:18;;;;;;;8.27;5.47;;;12.60;99.90;;;;;;4973245;28;20061;-58
2023/10/19 04:57:46;;;;;;;10.95;5.82;;;12.60;99.90;;;;;;4988445;28;20415;-58
2023/10/19 05:00:15;;;;;;;13.73;5.28;;;12.60;99.90;;;;;;4985562;28;20034;-57
2023/10/19 05:02:43;;;;;;;10.25;4.13;;;12.60;99.90;;;;;;4976187;28;20055;-59
2023/10/19 05:05:11;;;;;;;8.43;5.18;;;12.60;99.90;;;;;;4965382;28;20051;-57
2023/10/19 05:07:39;;;;;;;6.57;4.05;;;12.60;99.90;;;;;;4980822;28;20077;-59
2023/10/19 05:10:07;;;;;;;13.40;5.50;;;12.70;99.90;;;;;;4983417;28;20061;-58
2023/10/19 05:12:35;;;;;;;11.18;5.15;;;12.60;99.90;;;;;;4987457;28;20438;-59
2023/10/19 05:15:05;;;;;;;7.25;4.20;;;12.60;99.90;;;;;;4987008;28;20058;-58
2023/10/19 05:17:33;;;;;;;13.20;4.53;;;12.70;99.90;;;;;;4988211;28;20054;-58
2023/10/19 05:20:01;;;;;;;8.98;4.00;;;12.70;99.90;;;;;;4987218;28;20054;-59
2023/10/19 05:22:32;;;;;;;13.40;4.53;;;12.70;99.90;;;;;;4983594;28;20058;-58
2023/10/19 05:25:01;;;;;;;10.48;4.07;;;12.60;99.90;;;;;;4984972;28;20050;-59
2023/10/19 05:27:29;;;;;;;11.50;4.53;;;12.70;99.90;;;;;;4987020;28;20050;-59
2023/10/19 05:29:56;;;;;;;13.27;3.88;;;12.60;99.90;;;;;;4986849;28;20053;-58
2023/10/19 05:32:24;;;;;;;12.75;4.50;;;12.60;99.90;;;;;;4987859;28;20054;-59
2023/10/19 05:34:52;;;;;;;7.25;3.97;;;12.70;99.90;;;;;;4987357;28;20050;-58
2023/10/19 05:37:20;;;;;;;18.00;4.70;;;12.60;99.90;;;;;;4988061;28;20058;-59
2023/10/19 05:39:51;;;;;;;10.00;4.20;;;12.70;99.90;;;;;;4988196;28;20051;-58
2023/10/19 05:42:20;;;;;;;7.25;3.65;;;12.70;99.90;;;;;;4988616;28;20057;-59
2023/10/19 05:44:48;;;;;;;11.73;3.75;;;12.70;99.90;;;;;;4987928;28;20051;-59
2023/10/19 05:47:15;;;;;;;10.55;4.00;;;12.70;99.90;;;;;;4988850;28;20050;-59
2023/10/19 05:49:43;;;;;;;10.43;4.28;;;12.70;99.90;;;;;;4990942;28;20058;-57
2023/10/19 05:52:11;;;;;;;14.75;3.90;;;12.70;99.90;;;;;;4983660;28;20134;-58
2023/10/19 05:54:40;;;;;;;12.90;3.35;;;12.70;99.90;;;;;;4988078;28;20053;-59
2023/10/19 05:57:09;;;;;;;12.20;4.07;;;12.70;99.90;;;;;;4991365;28;20042;-59
2023/10/19 05:59:36;;;;;;;11.80;3.90;;;12.70;99.90;;;;;;4975635;28;20054;-59
2023/10/19 06:02:07;;;;;;;9.60;3.65;;;12.70;99.90;;;;;;4988436;28;20050;-59
2023/10/19 06:04:35;;;;;;;9.25;4.05;;;12.80;99.90;;;;;;4986394;28;20232;-58
2023/10/19 06:07:03;;;;;;;18.33;4.50;;;12.70;99.90;;;;;;4990539;28;20057;-58
2023/10/19 06:09:31;;;;;;;12.73;3.88;;;12.80;99.90;;;;;;4991017;28;20046;-58
2023/10/19 06:11:59;;;;;;;11.23;5.20;;;12.70;99.90;;;;;;4990310;28;20046;-59
2023/10/19 06:14:30;;;;;;;13.68;5.13;;;12.80;99.90;;;;;;4971347;28;20047;-59
2023/10/19 06:16:58;;;;;;;15.90;5.93;;;12.80;99.90;;;;;;4988537;28;20066;-58
2023/10/19 06:19:26;;;;;;;15.75;5.95;;;12.80;99.90;;;;;;4971854;28;20055;-58
2023/10/19 06:21:54;;;;;;;15.65;5.28;;;12.80;99.90;;;;;;4977482;28;20051;-58
2023/10/19 06:24:21;;;;;;;13.65;5.68;;;12.80;99.90;;;;;;4987728;28;20050;-59
2023/10/19 06:26:49;;;;;;;16.60;5.50;;;12.80;99.90;;;;;;4987722;28;20192;-59
2023/10/19 06:29:17;;;;;;;22.10;6.18;;;12.90;99.90;;;;;;4969201;28;20253;-57
2023/10/19 06:31:44;;;;;;;17.20;6.03;;;12.90;99.90;;;;;;4968866;28;20045;-58
2023/10/19 06:34:12;;;;;;;18.08;6.53;;;12.90;99.90;;;;;;4986589;28;20126;-58
2023/10/19 06:36:40;;;;;;;21.75;7.28;;;12.90;99.90;;;;;;4978978;28;20042;-58
2023/10/19 06:39:08;;;;;;;17.70;8.18;;;13.00;99.90;;;;;;4982895;28;20491;-59
2023/10/19 06:41:36;;;;;;;22.00;5.93;;;13.00;99.90;;;;;;4982788;28;20065;-57
2023/10/19 06:44:04;;;;;;;19.83;6.70;;;13.00;99.90;;;;;;4978613;28;20042;-57
2023/10/19 06:46:32;;;;;;;19.63;6.43;;;13.00;99.90;;;;;;4981717;28;20414;-57
2023/10/19 06:49:00;;;;;;;25.38;6.82;;;13.00;99.90;;;;;;4976188;28;20046;-57
2023/10/19 06:51:29;;;;;;;22.33;6.80;;;13.00;99.90;;;;;;4985610;28;20058;-58
2023/10/19 06:53:57;;;;;;;24.80;7.43;;;13.00;99.90;;;;;;4986604;28;20047;-58
2023/10/19 06:56:26;;;;;;;25.92;7.68;;;13.00;99.90;;;;;;4986218;28;20475;-57
2023/10/19 06:58:53;;;;;;;34.97;8.10;;;13.10;99.90;;;;;;4985443;28;20057;-57
2023/10/19 07:01:26;;;;;;;20.65;8.07;;;13.10;99.90;;;;;;4985329;28;20046;-57
2023/10/19 07:03:54;;;;;;;39.95;9.43;;;13.10;99.90;;;;;;4984039;28;20053;-57
2023/10/19 07:06:21;;;;;;;32.17;7.90;;;13.10;99.90;;;;;;4966753;28;20047;-56
2023/10/19 07:08:49;;;;;;;26.17;7.22;;;13.10;99.90;;;;;;4980225;28;20065;-56
2023/10/19 07:11:17;;;;;;;23.55;6.88;;;13.10;99.90;;;;;;4985400;28;20049;-56
2023/10/19 07:13:46;;;;;;;25.25;7.22;;;13.10;99.90;;;;;;4986172;28;20379;-56
2023/10/19 07:16:14;;;;;;;24.65;7.43;;;13.20;99.90;;;;;;4986643;28;20081;-55
2023/10/19 07:18:41;;;;;;;20.90;6.50;;;13.20;99.90;;;;;;4980706;28;20042;-55
2023/10/19 07:21:09;;;;;;;12.65;5.55;;;13.20;99.90;;;;;;4966298;28;20046;-55
2023/10/19 07:23:40;;;;;;;12.48;5.40;;;13.20;99.90;;;;;;4983183;28;20039;-56
2023/10/19 07:26:08;;;;;;;12.70;4.50;;;13.30;99.90;;;;;;4986010;28;20402;-56
2023/10/19 07:28:36;;;;;;;11.95;4.32;;;13.30;99.90;;;;;;4986178;28;20406;-56
2023/10/19 07:31:15;;;;;;;10.27;3.80;;;13.30;99.90;;;;;;4986360;28;20050;-56
2023/10/19 07:33:45;;;;;;;7.90;3.20;;;13.30;99.90;;;;;;4973685;28;20065;-57
2023/10/19 07:36:14;;;;;;;10.43;3.13;;;13.30;99.90;;;;;;4966030;28;20541;-56
2023/10/19 07:38:42;;;;;;;9.75;3.00;;;13.30;99.90;;;;;;4993921;28;20049;-56
2023/10/19 07:41:09;;;;;;;7.32;2.67;;;13.40;99.90;;;;;;4984557;28;20077;-57
2023/10/19 07:43:37;;;;;;;4.75;2.58;;;13.40;99.90;;;;;;4983315;28;20406;-57
2023/10/19 07:46:05;;;;;;;4.70;2.90;;;13.40;99.90;;;;;;4985127;28;20057;-57
2023/10/19 07:48:33;;;;;;;7.15;2.67;;;13.40;99.90;;;;;;4979822;28;20050;-56
2023/10/19 07:51:01;;;;;;;5.47;2.60;;;13.40;99.90;;;;;;4966211;28;20051;-57
2023/10/19 07:53:30;;;;;;;7.57;3.00;;;13.40;99.90;;;;;;4980739;28;20055;-57
2023/10/19 07:55:57;;;;;;;9.13;3.65;;;13.50;99.90;;;;;;4985697;28;20058;-57
2023/10/19 07:58:27;;;;;;;7.85;3.72;;;13.50;99.90;;;;;;4985972;28;20418;-56
2023/10/19 08:00:56;;;;;;;7.60;3.70;;;13.50;99.90;;;;;;4985266;28;20050;-56
2023/10/19 08:03:25;;;;;;;11.25;4.47;;;13.60;99.90;;;;;;4982531;28;20311;-56
2023/10/19 08:05:54;;;;;;;10.55;5.07;;;13.60;99.90;;;;;;4976356;28;20062;-56
2023/10/19 08:08:24;;;;;;;12.27;4.95;;;13.60;99.90;;;;;;4985114;28;20053;-57
2023/10/19 08:10:52;;;;;;;13.48;5.20;;;13.60;99.90;;;;;;4985208;28;20406;-58
2023/10/19 08:13:20;;;;;;;11.43;4.82;;;13.70;99.90;;;;;;4978660;28;20053;-57
2023/10/19 08:15:47;;;;;;;14.82;5.50;;;13.80;99.90;;;;;;4968949;28;20049;-56
2023/10/19 08:18:15;;;;;;;16.13;5.28;;;13.70;99.90;;;;;;4985067;28;20498;-56
2023/10/19 08:20:45;;;;;;;14.55;5.22;;;13.80;99.90;;;;;;4970578;28;20047;-57
2023/10/19 08:23:23;;;;;;;12.60;5.50;;;13.80;99.90;;;;;;4976570;28;20065;-57
2023/10/19 08:25:50;;;;;;;13.82;5.35;;;13.90;99.90;;;;;;4984946;28;20054;-57
2023/10/19 08:28:24;;;;;;;16.35;5.50;;;13.90;99.90;;;;;;4979804;28;20499;-57
2023/10/19 08:31:00;;;;;;;15.77;4.70;;;14.00;99.90;;;;;;4964232;28;20402;-57
2023/10/19 08:33:29;;;;;;;13.52;5.00;;;14.10;99.90;;;;;;4972556;28;20042;-58
2023/10/19 08:35:59;;;;;;;18.42;4.75;;;14.20;99.90;;;;;;4976022;28;20057;-57
2023/10/19 08:38:28;;;;;;;18.05;4.55;;;14.30;99.90;;;;;;4980757;28;20478;-57
2023/10/19 08:40:57;;;;;;;14.63;3.83;;;14.40;99.90;;;;;;4987190;28;20046;-57
2023/10/19 08:43:25;;;;;;;9.77;3.90;;;14.40;99.90;;;;;;4983168;28;20046;-58
2023/10/19 08:45:55;;;;;;;16.70;3.10;;;14.50;99.90;;;;;;4987999;28;20053;-58
2023/10/19 08:48:23;;;;;;;11.25;2.72;;;14.50;99.90;;;;;;4988409;28;20050;-58
2023/10/19 08:50:52;;;;;;;13.35;2.75;;;14.60;99.90;;;;;;4976681;28;20042;-58
2023/10/19 08:53:22;;;;;;;13.52;3.15;;;14.70;99.90;;;;;;4985867;28;20058;-58
2023/10/19 08:55:50;;;;;;;14.13;2.83;;;14.70;99.90;;;;;;4988903;28;20406;-57
2023/10/19 08:58:22;;;;;;;9.88;2.78;;;14.80;99.90;;;;;;4985932;28;20038;-56
2023/10/19 09:00:54;;;;;;;13.80;1.90;;;14.90;99.90;;;;;;4979238;28;20046;-57
2023/10/19 09:03:24;;;;;;;13.07;1.63;;;15.00;99.90;;;;;;4962386;28;20050;-57
2023/10/19 09:05:56;;;;;;;12.63;2.15;;;15.10;99.90;;;;;;4990598;28;20055;-58
2023/10/19 09:08:24;;;;;;;;;;;15.20;99.90;;;;;;4991126;28;20054;-58
2023/10/19 09:10:53;;;;;;;18.02;2.17;;;15.20;99.90;;;;;;4992365;28;19929;-59
2023/10/19 09:13:23;;;;;;;11.75;1.92;;;15.30;99.90;;;;;;4992320;28;20050;-60
2023/10/19 09:15:53;;;;;;;9.60;2.42;;;15.30;99.90;;;;;;4980915;28;20847;-57
2023/10/19 09:18:24;;;;;;;;;;;15.40;99.90;;;;;;4978453;28;20050;-57
2023/10/19 09:20:52;;;;;;;14.65;1.67;;;15.40;99.90;;;;;;4985486;28;19929;-58
2023/10/19 09:23:25;;;;;;;14.40;1.73;;;15.40;99.90;;;;;;4983421;28;20046;-58
2023/10/19 09:25:53;;;;;;;18.27;2.20;;;15.40;99.90;;;;;;4990811;28;20047;-60
2023/10/19 09:28:24;;;;;;;13.52;2.33;;;15.40;99.90;;;;;;4989080;28;20526;-58
2023/10/19 09:30:53;;;;;;;12.13;1.90;;;15.50;99.90;;;;;;4989707;28;20135;-58
2023/10/19 09:33:24;;;;;;;10.80;1.85;;;15.50;99.90;;;;;;4992217;28;20485;-57
2023/10/19 09:35:57;;;;;;;15.63;1.90;;;15.50;99.90;;;;;;4990088;28;20061;-58
2023/10/19 09:38:26;;;;;;;15.48;2.13;;;15.60;99.90;;;;;;4972426;28;20043;-58
2023/10/19 09:40:55;;;;;;;12.90;2.00;;;15.60;99.90;;;;;;4971292;28;20039;-58
2023/10/19 09:43:41;;;;;;;13.75;1.55;;;15.60;99.90;;;;;;4974804;28;20410;-58
2023/10/19 09:46:13;;;;;;;9.52;1.45;;;15.60;99.90;;;;;;4990057;28;20046;-58
2023/10/19 09:48:50;;;;;;;16.02;2.08;;;15.60;99.90;;;;;;4975266;28;20058;-58
2023/10/19 09:51:19;;;;;;;12.38;2.33;;;15.70;99.90;;;;;;4987185;28;20051;-57
2023/10/19 09:53:58;;;;;;;14.77;2.25;;;15.80;99.90;;;;;;4981603;28;20042;-58
2023/10/19 09:56:31;;;;;;;8.65;1.80;;;15.80;99.90;;;;;;4986358;28;20054;-58
2023/10/19 09:59:05;;;;;;;15.60;1.95;;;15.90;99.90;;;;;;4991430;28;20061;-59
2023/10/19 10:02:15;;;;;;;16.17;2.33;;;16.00;99.90;;;;;;4991545;28;20050;-59
2023/10/19 10:04:45;;;;;;;;;;;15.90;99.90;;;;;;4950587;28;20058;-59
2023/10/19 10:07:15;;;;;;;17.55;1.95;;;16.00;99.90;;;;;;4977048;28;20525;-59
2023/10/19 10:09:59;;;;;;;12.77;2.45;;;16.10;99.90;;;;;;4972267;28;20414;-59
2023/10/19 10:12:29;;;;;;;18.55;2.95;;;16.20;99.90;;;;;;4976490;28;20077;-59
2023/10/19 10:14:58;;;;;;;17.77;2.35;;;16.20;99.90;;;;;;4991104;28;20054;-59
2023/10/19 10:17:27;;;;;;;14.95;2.28;;;16.20;99.90;;;;;;4984185;28;20402;-58
2023/10/19 10:20:19;;;;;;;16.45;2.42;;;16.40;99.90;;;;;;4988103;28;20046;-58
2023/10/19 10:23:24;;;;;;;16.77;2.90;;;16.50;99.90;;;;;;4974622;28;20042;-58
2023/10/19 10:25:53;;;;;;;12.85;1.65;;;16.60;99.90;;;;;;4978274;28;20105;-58
2023/10/19 10:28:23;;;;;;;9.03;1.70;;;16.60;99.90;;;;;;4987263;28;20419;-58
2023/10/19 10:31:13;;;;;;;18.08;2.10;;;16.60;99.90;;;;;;4987037;28;20045;-58
2023/10/19 10:33:47;;;;;;;16.20;2.13;;;16.60;99.90;;;;;;4983280;28;20058;-58
2023/10/19 10:36:19;;;;;;;17.95;2.38;;;16.60;99.90;;;;;;4972204;28;20047;-58
2023/10/19 10:38:50;;;;;;;14.10;2.20;;;16.60;99.90;;;;;;4973573;28;20047;-57
2023/10/19 10:41:28;;;;;;;11.95;1.83;;;16.70;99.90;;;;;;4968272;28;20051;-58
2023/10/19 10:43:57;;;;;;;14.07;2.63;;;16.70;99.90;;;;;;4985599;28;20482;-58
2023/10/19 10:46:29;;;;;;;10.40;1.92;;;16.80;99.90;;;;;;4989411;28;20513;-58
2023/10/19 10:48:57;;;;;;;13.02;1.75;;;16.90;99.90;;;;;;4980701;28;20205;-58
2023/10/19 10:51:32;;;;;;;12.23;1.98;;;16.90;99.90;;;;;;4971256;28;20046;-58
2023/10/19 10:54:00;;;;;;;11.48;2.13;;;17.00;99.90;;;;;;4983793;28;20042;-58
2023/10/19 10:56:28;;;;;;;15.75;2.15;;;17.00;99.90;;;;;;4990594;28;20580;-58
2023/10/19 10:58:59;;;;;;;14.95;2.33;;;17.10;99.90;;;;;;4990521;28;20057;-58
2023/10/19 11:01:32;;;;;;;14.45;2.17;;;17.20;99.90;;;;;;4989027;28;20055;-58
2023/10/19 11:04:10;;;;;;;17.83;2.90;;;17.20;99.90;;;;;;4974084;28;20050;-57
2023/10/19 11:06:52;;;;;;;12.85;2.28;;;17.30;99.90;;;;;;4980477;28;20403;-59
2023/10/19 11:09:21;;;;;;;14.75;2.30;;;17.30;99.90;;;;;;4980429;28;20051;-58
2023/10/19 11:11:49;;;;;;;13.63;2.70;;;17.30;99.90;;;;;;4989071;28;20142;-58
2023/10/19 11:14:17;;;;;;;18.60;2.60;;;17.30;99.90;;;;;;4981665;28;20054;-57
2023/10/19 11:16:44;;;;;;;14.50;2.22;;;17.30;99.90;;;;;;4971153;28;20410;-58
2023/10/19 11:19:13;;;;;;;24.77;3.92;;;17.30;99.90;;;;;;4985628;28;20046;-58
2023/10/19 11:21:53;;;;;;;15.20;3.30;;;17.30;99.90;;;;;;4975151;28;20561;-58
2023/10/19 11:24:26;;;;;;;20.25;2.90;;;17.30;99.90;;;;;;4977815;28;20057;-59
2023/10/19 11:26:55;;;;;;;20.88;3.33;;;17.30;99.90;;;;;;4990228;28;20046;-59
2023/10/19 11:29:23;;;;;;;17.52;2.58;;;17.30;99.90;;;;;;4950835;28;20054;-59
2023/10/19 11:31:59;;;;;;;11.30;2.30;;;17.30;99.90;;;;;;4970711;28;20058;-59
2023/10/19 11:34:29;;;;;;;16.80;2.53;;;17.40;99.90;;;;;;4970720;28;20177;-58
2023/10/19 11:36:59;;;;;;;;;;;17.40;99.90;;;;;;4971128;28;20055;-59
2023/10/19 11:39:28;;;;;;;18.45;1.88;;;17.50;99.90;;;;;;4977754;28;19926;-58
2023/10/19 11:41:56;;;;;;;12.45;2.65;;;17.60;99.90;;;;;;4970164;28;20050;-58
2023/10/19 11:44:24;;;;;;;16.00;2.45;;;17.70;99.90;;;;;;4987096;28;20046;-57
2023/10/19 11:46:51;;;;;;;13.82;2.72;;;17.90;99.90;;;;;;4989730;28;20054;-58
2023/10/19 11:49:20;;;;;;;14.32;2.28;;;18.20;99.90;;;;;;4989565;28;20482;-59
2023/10/19 11:51:50;;;;;;;14.80;2.47;;;18.50;99.90;;;;;;4989558;28;20498;-58
2023/10/19 11:54:18;;;;;;;16.58;2.45;;;18.90;99.90;;;;;;4986739;28;20058;-58
2023/10/19 11:56:46;;;;;;;10.50;2.10;;;19.40;99.90;;;;;;4989836;28;20505;-58
2023/10/19 11:59:15;;;;;;;10.68;2.50;;;19.70;99.90;;;;;;4977110;28;20054;-58
2023/10/19 12:01:42;;;;;;;16.33;2.78;;;19.70;99.90;;;;;;4985101;28;20057;-59
2023/10/19 12:04:10;;;;;;;10.30;2.00;;;19.60;99.90;;;;;;4988948;28;20046;-60
2023/10/19 12:06:38;;;;;;;11.68;2.35;;;19.50;99.90;;;;;;4987868;28;20058;-60
2023/10/19 12:09:14;;;;;;;17.65;3.05;;;19.40;99.90;;;;;;4984887;28;20041;-59
2023/10/19 12:11:46;;;;;;;19.85;2.47;;;19.40;99.90;;;;;;4960090;28;20530;-60
2023/10/19 12:14:15;;;;;;;14.05;2.30;;;19.60;99.90;;;;;;4969752;28;20042;-59
2023/10/19 12:16:45;;;;;;;12.65;2.25;;;19.80;99.90;;;;;;4970073;28;20055;-60
2023/10/19 12:19:14;;;;;;;22.55;2.58;;;19.90;99.90;;;;;;4969477;28;20046;-59
2023/10/19 12:21:42;;;;;;;9.48;1.98;;;19.90;99.90;;;;;;4969810;28;20066;-59
2023/10/19 12:24:09;;;;;;;10.13;1.98;;;20.00;99.90;;;;;;4960371;28;20062;-59
2023/10/19 12:26:38;;;;;;;14.27;2.20;;;20.20;99.90;;;;;;4952894;28;20062;-60
2023/10/19 12:29:10;;;;;;;12.13;2.00;;;20.30;99.90;;;;;;4960162;28;20039;-62
2023/10/19 12:31:39;;;;;;;10.43;2.13;;;20.40;99.90;;;;;;4969519;28;20042;-59
2023/10/19 12:34:07;;;;;;;12.20;2.65;;;20.60;99.90;;;;;;4969727;28;20707;-61
2023/10/19 12:36:36;;;;;;;12.95;3.13;;;20.80;99.90;;;;;;4968059;28;20062;-61
2023/10/19 12:39:05;;;;;;;11.18;2.25;;;21.00;99.90;;;;;;4967507;28;20046;-61
2023/10/19 12:41:34;;;;;;;13.25;2.20;;;21.10;99.90;;;;;;4952868;28;20054;-60
2023/10/19 12:44:07;;;;;;;14.75;2.70;;;21.20;99.90;;;;;;4968815;28;20053;-60
2023/10/19 12:46:36;;;;;;;14.85;2.40;;;21.20;99.90;;;;;;4965863;28;20050;-62
2023/10/19 12:49:08;;;;;;;9.63;1.98;;;21.10;99.90;;;;;;4969115;28;20046;-60
2023/10/19 12:51:36;;;;;;;13.10;2.00;;;21.10;99.90;;;;;;4969507;28;20051;-62
2023/10/19 12:54:04;;;;;;;10.68;2.20;;;21.20;99.90;;;;;;4963924;28;20391;-62
2023/10/19 12:56:33;;;;;;;11.85;1.92;;;21.00;99.90;;;;;;4966212;28;20048;-61
2023/10/19 12:59:00;;;;;;;11.68;1.85;;;20.70;99.90;;;;;;4964591;28;20043;-63
2023/10/19 13:01:28;;;;;;;15.60;2.20;;;20.40;99.90;;;;;;4948899;29;20062;-61
2023/10/19 13:03:56;;;;;;;9.27;1.83;;;20.00;99.90;;;;;;4966626;28;20419;-61
2023/10/19 13:06:29;;;;;;;12.07;1.63;;;19.70;99.90;;;;;;4969448;28;20411;-60
2023/10/19 13:08:57;;;;;;;11.32;2.33;;;19.30;99.90;;;;;;4967421;28;20043;-60
2023/10/19 13:11:27;;;;;;;14.45;2.00;;;19.00;99.90;;;;;;4983689;28;20542;-58
2023/10/19 13:13:55;;;;;;;11.35;1.85;;;18.60;99.90;;;;;;4987621;28;20039;-58
2023/10/19 13:16:22;;;;;;;12.82;1.75;;;18.40;99.90;;;;;;4988417;28;20054;-58
2023/10/19 13:18:50;;;;;;;15.90;2.30;;;18.20;99.90;;;;;;4988345;28;20521;-58
2023/10/19 13:21:22;;;;;;;14.10;1.80;;;18.20;99.90;;;;;;4988469;28;20047;-58
2023/10/19 13:23:49;;;;;;;12.60;2.25;;;18.60;99.90;;;;;;4988165;28;20050;-59